Nyheim — LG8446 — position and weather

sailwx.info

Track history (hours):
 
Tides and Currents Weather Stations Pressure Air Temp Water Temp Dewpoint Dewpoint Depression Visibility Wind Speed Wind Dir Waves Ship Positions

Nyheim

Last reported at 2017-Oct-19 12:31 UTC. Time now 2017-Oct-20 01:46 UTC.
Position N 68°41' E 017°07'.

Length 13 m.

MMSI: 257653600.

Date/timePositionNaut miles runAvg speedWind from/ knotsBaromVisibWave heightAir tempDewpointWater temp
2017-Oct-19 12:31N 68°41' E 017°07'0 0.0
2017-Oct-19 11:23N 68°41' E 017°07'0 0.3
2017-Oct-19 11:00N 68°41' E 017°07'0 0.0
2017-Oct-19 10:30N 68°41' E 017°07'0 0.0
2017-Oct-19 10:00N 68°41' E 017°07'0 0.0
2017-Oct-19 09:30N 68°41' E 017°07'0 0.0
2017-Oct-19 09:00N 68°41' E 017°07'0 0.0
2017-Oct-19 08:29N 68°41' E 017°07'0 0.2
2017-Oct-19 07:59N 68°41' E 017°07'0 0.0
2017-Oct-19 07:30N 68°41' E 017°07'0 0.2
2017-Oct-19 07:00N 68°41' E 017°07'0 0.0
2017-Oct-19 06:29N 68°41' E 017°07'1 2.1
2017-Oct-19 06:00N 68°41' E 017°05'714.2
2017-Oct-19 05:30N 68°48' E 017°10'612.9
2017-Oct-19 05:00N 68°54' E 017°05'1 2.5
2017-Oct-19 04:30N 68°56' E 017°07'0 0.0
2017-Oct-19 04:00N 68°56' E 017°07'0 0.0
2017-Oct-19 03:31N 68°56' E 017°07'0 0.0
2017-Oct-19 03:00N 68°56' E 017°07'0 0.0
2017-Oct-19 02:30N 68°56' E 017°07'0 0.0
2017-Oct-19 02:01N 68°56' E 017°07'0 0.0
2017-Oct-19 01:31N 68°56' E 017°07'0 0.0
2017-Oct-19 01:00N 68°56' E 017°07'0 0.0
2017-Oct-19 00:31N 68°56' E 017°07'0 0.0
2017-Oct-19 00:00N 68°56' E 017°07'0 0.0
2017-Oct-18 23:30N 68°56' E 017°07'0 0.0
2017-Oct-18 23:00N 68°56' E 017°07'0 0.0
2017-Oct-18 22:30N 68°56' E 017°07'0 0.0
2017-Oct-18 22:00N 68°56' E 017°07'0 0.0
2017-Oct-18 21:29N 68°56' E 017°07'0 0.0
2017-Oct-18 21:00N 68°56' E 017°07'0 0.0
2017-Oct-18 20:30N 68°56' E 017°07'0 0.0
2017-Oct-18 20:00N 68°56' E 017°07'4 8.7
2017-Oct-18 19:30N 68°52' E 016°60'510.1
2017-Oct-18 19:00N 68°48' E 016°55'0 0.4
2017-Oct-18 18:31N 68°47' E 016°55'0 0.0
2017-Oct-18 18:00N 68°47' E 016°55'0 0.0
2017-Oct-18 17:30N 68°47' E 016°55'0 0.0
2017-Oct-18 17:01N 68°47' E 016°55'0 0.0
2017-Oct-18 16:30N 68°47' E 016°55'0 0.0
2017-Oct-18 15:59N 68°47' E 016°55'0 0.2
2017-Oct-18 15:31N 68°47' E 016°55'0 0.0
2017-Oct-18 15:00N 68°47' E 016°55'0 0.1
2017-Oct-18 14:00N 68°48' E 016°55'0 0.0
2017-Oct-18 13:30N 68°48' E 016°55'0 0.0
2017-Oct-18 13:00N 68°48' E 016°55'4 7.8
2017-Oct-18 12:31N 68°51' E 016°59'510.5
2017-Oct-18 12:00N 68°48' E 017°11'4 7.5
2017-Oct-18 11:30N 68°49' E 017°21'3 6.7
2017-Oct-18 11:00N 68°48' E 017°13'612.8
2017-Oct-18 10:30N 68°52' E 016°59'5 9.1
2017-Oct-18 09:59N 68°48' E 016°55'2 4.8
2017-Oct-18 09:30N 68°50' E 016°57'713.9
2017-Oct-18 09:00N 68°56' E 017°08'0 0.2
2017-Oct-18 08:30N 68°56' E 017°07'0 0.0
2017-Oct-18 08:01N 68°56' E 017°07'0 0.0
2017-Oct-18 07:30N 68°56' E 017°07'0 0.0
2017-Oct-18 07:00N 68°56' E 017°07'0 0.0
2017-Oct-18 06:30N 68°56' E 017°07'0 0.0
2017-Oct-18 06:00N 68°56' E 017°07'0 0.0
2017-Oct-18 05:30N 68°56' E 017°07'0 0.0
2017-Oct-18 05:00N 68°56' E 017°07'0 0.0
2017-Oct-18 04:30N 68°56' E 017°07'0 0.0
2017-Oct-18 04:00N 68°56' E 017°07'0 0.0
2017-Oct-18 03:30N 68°56' E 017°07'0 0.0
2017-Oct-18 03:00N 68°56' E 017°07'0 0.0
2017-Oct-18 02:30N 68°56' E 017°07'0 0.0
2017-Oct-18 02:00N 68°56' E 017°07'0 0.0
2017-Oct-18 01:30N 68°56' E 017°07'0 0.0
2017-Oct-18 01:00N 68°56' E 017°07'0 0.0
2017-Oct-18 00:30N 68°56' E 017°07'0 0.0
2017-Oct-18 00:00N 68°56' E 017°07'0 0.0
2017-Oct-17 23:30N 68°56' E 017°07'0 0.0
2017-Oct-17 23:00N 68°56' E 017°07'0 0.0
2017-Oct-17 22:30N 68°56' E 017°07'0 0.0
2017-Oct-17 22:00N 68°56' E 017°07'0 0.0
2017-Oct-17 21:31N 68°56' E 017°07'0 0.0
2017-Oct-17 21:00N 68°56' E 017°07'0 0.0
2017-Oct-17 20:30N 68°56' E 017°07'0 0.0
2017-Oct-17 20:01N 68°56' E 017°07'0 0.0
2017-Oct-17 19:30N 68°56' E 017°07'0 0.0
2017-Oct-17 19:01N 68°56' E 017°07'0 0.0
2017-Oct-17 18:30N 68°56' E 017°07'0 0.0
2017-Oct-17 18:01N 68°56' E 017°07'0 0.0
2017-Oct-17 17:30N 68°56' E 017°07'0 0.0
2017-Oct-17 17:01N 68°56' E 017°07'0 0.0
2017-Oct-17 16:30N 68°56' E 017°07'0 0.0
2017-Oct-17 16:00N 68°56' E 017°07'0 0.0
2017-Oct-17 15:30N 68°56' E 017°07'0 0.0
2017-Oct-17 15:00N 68°56' E 017°07'0 0.0
2017-Oct-17 14:30N 68°56' E 017°07'0 0.0
2017-Oct-17 14:00N 68°56' E 017°07'0 0.0
2017-Oct-17 13:31N 68°56' E 017°07'0 0.1
2017-Oct-17 13:00N 68°55' E 017°07'0 0.3
2017-Oct-17 12:30N 68°55' E 017°08'0 0.4
2017-Oct-17 12:00N 68°56' E 017°07'0 0.0
2017-Oct-17 11:30N 68°56' E 017°07'0 1.0
2017-Oct-17 11:00N 68°55' E 017°09'0 1.0
2017-Oct-17 10:29N 68°56' E 017°07'0 0.0
2017-Oct-17 10:00N 68°56' E 017°07'0 0.0
2017-Oct-17 09:30N 68°56' E 017°07'0 0.0
2017-Oct-17 09:00N 68°56' E 017°07'0 0.9
2017-Oct-17 08:30N 68°55' E 017°09'0 0.9
2017-Oct-17 08:00N 68°56' E 017°07'0 0.0
2017-Oct-17 07:30N 68°56' E 017°07'0 0.0
2017-Oct-17 07:00N 68°56' E 017°07'0 0.0
2017-Oct-17 06:30N 68°56' E 017°07'0 0.0
2017-Oct-17 06:00N 68°56' E 017°07'0 0.0
2017-Oct-17 05:30N 68°56' E 017°07'0 0.0
2017-Oct-17 04:59N 68°56' E 017°07'0 0.0
2017-Oct-17 04:31N 68°56' E 017°07'0 0.0
2017-Oct-17 04:00N 68°56' E 017°07'0 0.0
2017-Oct-17 03:30N 68°56' E 017°07'0 0.0
2017-Oct-17 03:00N 68°56' E 017°07'0 0.0
2017-Oct-17 02:31N 68°56' E 017°07'0 0.0
2017-Oct-17 02:00N 68°56' E 017°07'0 0.0
2017-Oct-17 01:30N 68°56' E 017°07'0 0.0
2017-Oct-17 01:01N 68°56' E 017°07'0 0.0
2017-Oct-17 00:30N 68°56' E 017°07'0 0.0
2017-Oct-17 00:00N 68°56' E 017°07'0 0.0
2017-Oct-16 23:30N 68°56' E 017°07'0 0.0
2017-Oct-16 23:00N 68°56' E 017°07'0 0.0
2017-Oct-16 22:30N 68°56' E 017°07'0 0.0
2017-Oct-16 22:00N 68°56' E 017°07'0 0.0
2017-Oct-16 21:30N 68°56' E 017°07'0 0.0
2017-Oct-16 21:00N 68°56' E 017°07'0 0.0
2017-Oct-16 20:30N 68°56' E 017°07'0 0.0
2017-Oct-16 20:00N 68°56' E 017°07'0 0.0
2017-Oct-16 19:30N 68°56' E 017°07'0 0.0
2017-Oct-16 19:00N 68°56' E 017°07'0 0.0
2017-Oct-16 18:30N 68°56' E 017°07'0 0.0
2017-Oct-16 18:00N 68°56' E 017°07'0 0.0
2017-Oct-16 17:30N 68°56' E 017°07'0 0.0
2017-Oct-16 17:00N 68°56' E 017°07'0 0.0
2017-Oct-16 16:30N 68°56' E 017°07'0 0.0
2017-Oct-16 16:00N 68°56' E 017°07'0 0.0
2017-Oct-16 15:30N 68°56' E 017°07'0 0.0
2017-Oct-16 15:00N 68°56' E 017°07'0 0.0
2017-Oct-16 14:00N 68°56' E 017°07'0 0.5
2017-Oct-16 13:30N 68°56' E 017°07'713.9
2017-Oct-16 13:00N 68°49' E 017°10'510.2
2017-Oct-16 12:30N 68°50' E 017°24'0 0.0
2017-Oct-16 12:00N 68°50' E 017°24'2 3.2
2017-Oct-16 11:30N 68°49' E 017°21'0 0.0
2017-Oct-16 11:00N 68°49' E 017°21'0 0.4
2017-Oct-16 10:30N 68°49' E 017°21'0 0.2
2017-Oct-16 10:00N 68°49' E 017°21'0 0.3
2017-Oct-16 09:30N 68°49' E 017°21'0 0.2
2017-Oct-16 09:00N 68°49' E 017°21'0 0.4
2017-Oct-16 08:30N 68°49' E 017°21'0 0.2
2017-Oct-16 08:00N 68°49' E 017°21'0 0.3
2017-Oct-16 07:29N 68°49' E 017°21'0 0.1
2017-Oct-16 07:00N 68°49' E 017°21'2 4.3
2017-Oct-16 06:30N 68°48' E 017°16'714.4
2017-Oct-16 06:00N 68°54' E 017°05'2 3.8
2017-Oct-16 05:30N 68°56' E 017°07'0 0.0
2017-Oct-16 05:00N 68°56' E 017°07'0 0.0
2017-Oct-16 04:30N 68°56' E 017°07'0 0.0
2017-Oct-16 04:00N 68°56' E 017°07'0 0.0
2017-Oct-16 03:30N 68°56' E 017°07'0 0.0
2017-Oct-16 03:00N 68°56' E 017°07'0 0.0
2017-Oct-16 02:30N 68°56' E 017°07'0 0.0
2017-Oct-16 02:01N 68°56' E 017°07'0 0.0
2017-Oct-16 01:31N 68°56' E 017°07'0 0.0
2017-Oct-16 01:00N 68°56' E 017°07'0 0.0
2017-Oct-16 00:31N 68°56' E 017°07'0 0.0
2017-Oct-16 00:00N 68°56' E 017°07'0 0.0
2017-Oct-15 23:30N 68°56' E 017°07'0 0.0
2017-Oct-15 23:00N 68°56' E 017°07'0 0.0
2017-Oct-15 22:30N 68°56' E 017°07'0 0.0
2017-Oct-15 22:00N 68°56' E 017°07'0 0.0
2017-Oct-15 21:31N 68°56' E 017°07'0 0.0
2017-Oct-15 21:00N 68°56' E 017°07'0 0.0
2017-Oct-15 20:30N 68°56' E 017°07'0 0.0
2017-Oct-15 20:00N 68°56' E 017°07'0 0.0
2017-Oct-15 19:30N 68°56' E 017°07'0 0.0
2017-Oct-15 19:00N 68°56' E 017°07'0 0.0
2017-Oct-15 18:29N 68°56' E 017°07'0 0.0
2017-Oct-15 18:00N 68°56' E 017°07'0 0.0
2017-Oct-15 17:30N 68°56' E 017°07'0 0.0
2017-Oct-15 17:00N 68°56' E 017°07'0 0.0
2017-Oct-15 16:30N 68°56' E 017°07'0 0.0
2017-Oct-15 16:00N 68°56' E 017°07'0 0.0
2017-Oct-15 15:30N 68°56' E 017°07'0 0.0
2017-Oct-15 15:00N 68°56' E 017°07'0 0.0
2017-Oct-15 14:00N 68°56' E 017°07'0 0.0
2017-Oct-15 13:30N 68°56' E 017°07'0 0.0
2017-Oct-15 13:00N 68°56' E 017°07'0 0.0
2017-Oct-15 12:30N 68°56' E 017°07'0 0.0
2017-Oct-15 12:00N 68°56' E 017°07'0 0.0
2017-Oct-15 11:30N 68°56' E 017°07'0 0.0
2017-Oct-15 11:00N 68°56' E 017°07'0 0.0
2017-Oct-15 10:30N 68°56' E 017°07'0 0.0
2017-Oct-15 10:00N 68°56' E 017°07'0 0.0
2017-Oct-15 09:30N 68°56' E 017°07'0 0.0
2017-Oct-15 09:00N 68°56' E 017°07'0 0.0
2017-Oct-15 08:30N 68°56' E 017°07'0 0.0
2017-Oct-15 08:01N 68°56' E 017°07'0 0.0
2017-Oct-15 07:30N 68°56' E 017°07'0 0.0
2017-Oct-15 07:00N 68°56' E 017°07'0 0.0
2017-Oct-15 06:31N 68°56' E 017°07'0 0.0
2017-Oct-15 05:59N 68°56' E 017°07'0 0.0
2017-Oct-15 05:30N 68°56' E 017°07'0 0.0
2017-Oct-15 05:00N 68°56' E 017°07'0 0.0
2017-Oct-15 04:30N 68°56' E 017°07'0 0.0
2017-Oct-15 04:00N 68°56' E 017°07'0 0.0
2017-Oct-15 03:30N 68°56' E 017°07'0 0.0
2017-Oct-15 03:00N 68°56' E 017°07'0 0.0
2017-Oct-15 02:30N 68°56' E 017°07'0 0.0
2017-Oct-15 02:00N 68°56' E 017°07'0 0.0
2017-Oct-15 01:31N 68°56' E 017°07'0 0.0
2017-Oct-15 01:00N 68°56' E 017°07'0 0.0
2017-Oct-15 00:29N 68°56' E 017°07'0 0.0
2017-Oct-15 00:00N 68°56' E 017°07'0 0.0
2017-Oct-14 23:30N 68°56' E 017°07'0 0.0
2017-Oct-14 23:00N 68°56' E 017°07'0 0.0
2017-Oct-14 22:31N 68°56' E 017°07'0 0.0
2017-Oct-14 22:00N 68°56' E 017°07'0 0.0
2017-Oct-14 21:30N 68°56' E 017°07'0 0.0
2017-Oct-14 21:00N 68°56' E 017°07'0 0.0
2017-Oct-14 20:30N 68°56' E 017°07'0 0.0
2017-Oct-14 20:00N 68°56' E 017°07'0 0.0
2017-Oct-14 19:30N 68°56' E 017°07'0 0.0
2017-Oct-14 19:00N 68°56' E 017°07'0 0.0
2017-Oct-14 18:30N 68°56' E 017°07'0 0.0
2017-Oct-14 18:00N 68°56' E 017°07'0 0.0
2017-Oct-14 17:30N 68°56' E 017°07'0 0.0
2017-Oct-14 17:00N 68°56' E 017°07'0 0.0
2017-Oct-14 16:30N 68°56' E 017°07'0 0.0
2017-Oct-14 16:00N 68°56' E 017°07'0 0.0
2017-Oct-14 15:29N 68°56' E 017°07'0 0.0
2017-Oct-14 15:00N 68°56' E 017°07'0 0.0
2017-Oct-14 14:30N 68°56' E 017°07'0 0.0
2017-Oct-14 14:01N 68°56' E 017°07'0 0.0
2017-Oct-14 13:30N 68°56' E 017°07'0 0.0
2017-Oct-14 13:00N 68°56' E 017°07'0 0.0
2017-Oct-14 12:31N 68°56' E 017°07'0 0.0
2017-Oct-14 12:00N 68°56' E 017°07'0 0.0
2017-Oct-14 11:30N 68°56' E 017°07'0 0.0
2017-Oct-14 11:00N 68°56' E 017°07'0 0.0
2017-Oct-14 10:30N 68°56' E 017°07'0 0.0
2017-Oct-14 10:00N 68°56' E 017°07'0 0.0
2017-Oct-14 09:30N 68°56' E 017°07'0 0.0
2017-Oct-14 09:00N 68°56' E 017°07'0 0.0
2017-Oct-14 08:30N 68°56' E 017°07'0 0.0
2017-Oct-14 08:00N 68°56' E 017°07'0 0.0
2017-Oct-14 07:30N 68°56' E 017°07'0 0.0
2017-Oct-14 07:00N 68°56' E 017°07'0 0.0
2017-Oct-14 06:31N 68°56' E 017°07'0 0.0
2017-Oct-14 06:00N 68°56' E 017°07'0 0.0
2017-Oct-14 05:30N 68°56' E 017°07'0 0.0
2017-Oct-14 05:00N 68°56' E 017°07'0 0.0
2017-Oct-14 04:30N 68°56' E 017°07'0 0.0
2017-Oct-14 04:00N 68°56' E 017°07'0 0.0
2017-Oct-14 03:30N 68°56' E 017°07'0 0.0
2017-Oct-14 03:00N 68°56' E 017°07'0 0.0
2017-Oct-14 02:30N 68°56' E 017°07'0 0.0
2017-Oct-14 02:01N 68°56' E 017°07'0 0.0
2017-Oct-14 01:30N 68°56' E 017°07'0 0.0
2017-Oct-14 01:00N 68°56' E 017°07'0 0.0
2017-Oct-14 00:30N 68°56' E 017°07'0 0.0
2017-Oct-14 00:00N 68°56' E 017°07'0 0.0
2017-Oct-13 23:30N 68°56' E 017°07'0 0.0
2017-Oct-13 23:01N 68°56' E 017°07'0 0.0
2017-Oct-13 22:30N 68°56' E 017°07'0 0.0
2017-Oct-13 22:00N 68°56' E 017°07'0 0.0
2017-Oct-13 21:30N 68°56' E 017°07'0 0.0
2017-Oct-13 21:01N 68°56' E 017°07'0 0.0
2017-Oct-13 20:30N 68°56' E 017°07'0 0.0
2017-Oct-13 20:01N 68°56' E 017°07'0 0.0
2017-Oct-13 19:30N 68°56' E 017°07'0 0.0
2017-Oct-13 19:00N 68°56' E 017°07'0 0.0
2017-Oct-13 18:30N 68°56' E 017°07'0 0.0
2017-Oct-13 18:00N 68°56' E 017°07'0 0.0
2017-Oct-13 17:30N 68°56' E 017°07'0 0.0
2017-Oct-13 17:01N 68°56' E 017°07'0 0.0
2017-Oct-13 16:30N 68°56' E 017°07'0 0.0
2017-Oct-13 16:00N 68°56' E 017°07'0 0.0
2017-Oct-13 15:29N 68°56' E 017°07'0 0.0
2017-Oct-13 15:00N 68°56' E 017°07'0 0.0
2017-Oct-13 14:30N 68°56' E 017°07'0 0.0
2017-Oct-13 14:00N 68°56' E 017°07'0 0.0
2017-Oct-13 13:30N 68°56' E 017°07'0 0.0
2017-Oct-13 13:00N 68°56' E 017°07'0 0.9
2017-Oct-13 12:29N 68°56' E 017°09'0 0.0
2017-Oct-13 12:00N 68°56' E 017°09'0 0.0
2017-Oct-13 11:29N 68°56' E 017°09'0 0.0
2017-Oct-13 11:00N 68°56' E 017°09'0 0.0
2017-Oct-13 10:30N 68°56' E 017°09'0 0.0
2017-Oct-13 09:59N 68°56' E 017°09'0 0.0
2017-Oct-13 09:30N 68°56' E 017°09'0 0.0
2017-Oct-13 09:00N 68°56' E 017°09'0 0.0
2017-Oct-13 08:30N 68°56' E 017°09'0 0.1
2017-Oct-13 08:00N 68°56' E 017°09'0 0.0
2017-Oct-12 16:24N 68°56' E 017°07'0 0.0
2017-Oct-12 16:00N 68°56' E 017°07'0 0.0
2017-Oct-12 15:30N 68°56' E 017°07'0 0.0
2017-Oct-12 15:00N 68°56' E 017°07'0 0.0
2017-Oct-12 14:30N 68°56' E 017°07'0 0.0
2017-Oct-12 14:00N 68°56' E 017°07'0 0.0
2017-Oct-12 13:30N 68°56' E 017°07'0 0.0
2017-Oct-12 13:00N 68°56' E 017°07'0 0.0
2017-Oct-12 12:30N 68°56' E 017°07'1 1.1
2017-Oct-12 12:00N 68°55' E 017°09'612.5
2017-Oct-12 11:30N 68°54' E 017°26'4 7.6
2017-Oct-12 11:00N 68°50' E 017°24'0 0.0
2017-Oct-12 10:30N 68°50' E 017°24'2 3.3
2017-Oct-12 10:00N 68°49' E 017°21'0 0.0
2017-Oct-12 09:30N 68°49' E 017°21'2 3.3
2017-Oct-12 09:00N 68°50' E 017°24'2 3.3
2017-Oct-12 08:30N 68°49' E 017°21'0 0.1
2017-Oct-12 08:00N 68°49' E 017°21'0 0.2
2017-Oct-12 07:30N 68°49' E 017°21'0 0.3
2017-Oct-12 07:00N 68°49' E 017°21'0 0.2
2017-Oct-12 06:30N 68°49' E 017°21'2 3.9
2017-Oct-12 06:00N 68°48' E 017°17'612.5
2017-Oct-12 05:30N 68°53' E 017°06'3 5.6
2017-Oct-12 05:00N 68°56' E 017°07'0 0.0
2017-Oct-12 04:30N 68°56' E 017°07'0 0.0
2017-Oct-12 04:00N 68°56' E 017°07'0 0.0
2017-Oct-12 03:30N 68°56' E 017°07'0 0.0
2017-Oct-12 03:00N 68°56' E 017°07'0 0.0
2017-Oct-12 02:29N 68°56' E 017°07'0 0.0
2017-Oct-12 01:59N 68°56' E 017°07'0 0.0
2017-Oct-12 01:29N 68°56' E 017°07'0 0.0
2017-Oct-12 00:59N 68°56' E 017°07'0 0.0
2017-Oct-12 00:30N 68°56' E 017°07'0 0.0
2017-Oct-12 00:00N 68°56' E 017°07'0 0.0
2017-Oct-11 23:30N 68°56' E 017°07'0 0.0
2017-Oct-11 23:00N 68°56' E 017°07'0 0.0
2017-Oct-11 22:30N 68°56' E 017°07'0 0.0
2017-Oct-11 22:00N 68°56' E 017°07'0 0.0
2017-Oct-11 21:30N 68°56' E 017°07'0 0.0
2017-Oct-11 21:00N 68°56' E 017°07'0 0.0
2017-Oct-11 20:30N 68°56' E 017°07'0 0.0
2017-Oct-11 19:59N 68°56' E 017°07'0 0.0
2017-Oct-11 19:30N 68°56' E 017°07'0 0.0
2017-Oct-11 19:00N 68°56' E 017°07'0 0.0
2017-Oct-11 18:30N 68°56' E 017°07'0 0.0
2017-Oct-11 18:00N 68°56' E 017°07'0 0.0
2017-Oct-11 17:30N 68°56' E 017°07'0 0.0
2017-Oct-11 17:00N 68°56' E 017°07'3 0.2
2017-Oct-11 00:00N 68°54' E 017°02'713.6
2017-Oct-10 23:30N 68°47' E 016°55'0 0.0
2017-Oct-10 23:00N 68°47' E 016°55'0 0.0
2017-Oct-10 22:30N 68°47' E 016°55'0 0.0
2017-Oct-10 22:00N 68°47' E 016°55'0 0.0
2017-Oct-10 21:31N 68°47' E 016°55'0 0.0
2017-Oct-10 21:00N 68°47' E 016°55'0 0.0
2017-Oct-10 20:30N 68°47' E 016°55'0 0.0
2017-Oct-10 20:00N 68°47' E 016°55'0 0.0
2017-Oct-10 19:30N 68°47' E 016°55'0 0.0
2017-Oct-10 19:01N 68°47' E 016°55'0 0.0
2017-Oct-10 18:30N 68°47' E 016°55'0 0.0
2017-Oct-10 18:00N 68°47' E 016°55'0 0.1
2017-Oct-10 17:30N 68°47' E 016°55'2 3.3
2017-Oct-10 17:00N 68°49' E 016°56'815.1
2017-Oct-10 16:30N 68°56' E 017°07'0 0.6
2017-Oct-10 15:59N 68°56' E 017°07'0 0.0
2017-Oct-10 15:30N 68°56' E 017°07'0 0.0
2017-Oct-10 15:00N 68°56' E 017°07'0 0.0
2017-Oct-10 14:00N 68°56' E 017°07'0 0.0
2017-Oct-10 13:30N 68°56' E 017°07'0 0.0
2017-Oct-10 13:00N 68°56' E 017°07'0 0.0
2017-Oct-10 12:30N 68°56' E 017°07'0 0.0
2017-Oct-10 12:00N 68°56' E 017°07'0 0.0
2017-Oct-10 11:30N 68°56' E 017°07'0 0.0
2017-Oct-10 11:00N 68°56' E 017°07'0 0.0
2017-Oct-10 10:30N 68°56' E 017°07'0 0.0
2017-Oct-10 10:00N 68°56' E 017°07'0 0.0
2017-Oct-10 09:30N 68°56' E 017°07'0 0.0
2017-Oct-10 09:00N 68°56' E 017°07'0 0.0
2017-Oct-10 08:30N 68°56' E 017°07'0 0.0
2017-Oct-10 08:00N 68°56' E 017°07'0 0.0
2017-Oct-10 07:30N 68°56' E 017°07'0 0.0
2017-Oct-10 07:00N 68°56' E 017°07'0 0.0
2017-Oct-10 06:30N 68°56' E 017°07'0 0.0
2017-Oct-10 06:00N 68°56' E 017°07'0 0.0
2017-Oct-10 05:30N 68°56' E 017°07'0 0.0
2017-Oct-10 05:00N 68°56' E 017°07'0 0.0
2017-Oct-10 04:29N 68°56' E 017°07'0 0.0
2017-Oct-10 04:00N 68°56' E 017°07'0 0.0
2017-Oct-10 03:30N 68°56' E 017°07'0 0.0
2017-Oct-10 03:00N 68°56' E 017°07'0 0.0
2017-Oct-10 02:30N 68°56' E 017°07'0 0.0
2017-Oct-10 02:00N 68°56' E 017°07'0 0.0
2017-Oct-10 01:30N 68°56' E 017°07'0 0.0
2017-Oct-10 01:00N 68°56' E 017°07'0 0.0
2017-Oct-10 00:30N 68°56' E 017°07'0 0.0
2017-Oct-10 00:00N 68°56' E 017°07'0 0.0
2017-Oct-09 23:30N 68°56' E 017°07'0 0.0
2017-Oct-09 23:00N 68°56' E 017°07'0 0.0
2017-Oct-09 22:30N 68°56' E 017°07'0 0.0
2017-Oct-09 22:00N 68°56' E 017°07'0 0.0
2017-Oct-09 21:30N 68°56' E 017°07'0 0.0
2017-Oct-09 21:00N 68°56' E 017°07'0 0.0
2017-Oct-09 20:30N 68°56' E 017°07'0 0.0
2017-Oct-09 20:00N 68°56' E 017°07'0 0.0
2017-Oct-09 19:30N 68°56' E 017°07'0 0.0
2017-Oct-09 19:00N 68°56' E 017°07'0 0.0
2017-Oct-09 18:30N 68°56' E 017°07'0 0.0
2017-Oct-09 18:00N 68°56' E 017°07'0 0.0
2017-Oct-09 17:30N 68°56' E 017°07'0 0.0
2017-Oct-09 17:00N 68°56' E 017°07'0 0.0
2017-Oct-09 16:30N 68°56' E 017°07'0 0.0
2017-Oct-09 16:00N 68°56' E 017°07'0 0.0
2017-Oct-09 15:30N 68°56' E 017°07'0 0.0
2017-Oct-09 15:00N 68°56' E 017°07'0 0.0
2017-Oct-09 14:30N 68°56' E 017°07'5 9.0
2017-Oct-09 14:00N 68°52' E 016°60'5 9.5
2017-Oct-09 13:30N 68°48' E 016°55'0 0.0
2017-Oct-09 13:00N 68°48' E 016°55'  
Track history (hours):
 
Tides and Currents Weather Stations Pressure Air Temp Water Temp Dewpoint Dewpoint Depression Visibility Wind Speed Wind Dir Waves Ship Positions

Nyheim

Last reported at 2017-Oct-19 12:31 UTC. Time now 2017-Oct-20 01:46 UTC.
Position N 68°41' E 017°07'.

Length 13 m.

MMSI: 257653600.

Date/timePositionNaut miles runAvg speedWind from/ knotsBaromVisibWave heightAir tempDewpointWater temp
2017-Oct-19 12:31N 68°41' E 017°07'0 0.0
2017-Oct-19 11:23N 68°41' E 017°07'0 0.3
2017-Oct-19 11:00N 68°41' E 017°07'0 0.0
2017-Oct-19 10:30N 68°41' E 017°07'0 0.0
2017-Oct-19 10:00N 68°41' E 017°07'0 0.0
2017-Oct-19 09:30N 68°41' E 017°07'0 0.0
2017-Oct-19 09:00N 68°41' E 017°07'0 0.0
2017-Oct-19 08:29N 68°41' E 017°07'0 0.2
2017-Oct-19 07:59N 68°41' E 017°07'0 0.0
2017-Oct-19 07:30N 68°41' E 017°07'0 0.2
2017-Oct-19 07:00N 68°41' E 017°07'0 0.0
2017-Oct-19 06:29N 68°41' E 017°07'1 2.1
2017-Oct-19 06:00N 68°41' E 017°05'714.2
2017-Oct-19 05:30N 68°48' E 017°10'612.9
2017-Oct-19 05:00N 68°54' E 017°05'1 2.5
2017-Oct-19 04:30N 68°56' E 017°07'0 0.0
2017-Oct-19 04:00N 68°56' E 017°07'0 0.0
2017-Oct-19 03:31N 68°56' E 017°07'0 0.0
2017-Oct-19 03:00N 68°56' E 017°07'0 0.0
2017-Oct-19 02:30N 68°56' E 017°07'0 0.0
2017-Oct-19 02:01N 68°56' E 017°07'0 0.0
2017-Oct-19 01:31N 68°56' E 017°07'0 0.0
2017-Oct-19 01:00N 68°56' E 017°07'0 0.0
2017-Oct-19 00:31N 68°56' E 017°07'0 0.0
2017-Oct-19 00:00N 68°56' E 017°07'0 0.0
2017-Oct-18 23:30N 68°56' E 017°07'0 0.0
2017-Oct-18 23:00N 68°56' E 017°07'0 0.0
2017-Oct-18 22:30N 68°56' E 017°07'0 0.0
2017-Oct-18 22:00N 68°56' E 017°07'0 0.0
2017-Oct-18 21:29N 68°56' E 017°07'0 0.0
2017-Oct-18 21:00N 68°56' E 017°07'0 0.0
2017-Oct-18 20:30N 68°56' E 017°07'0 0.0
2017-Oct-18 20:00N 68°56' E 017°07'4 8.7
2017-Oct-18 19:30N 68°52' E 016°60'510.1
2017-Oct-18 19:00N 68°48' E 016°55'0 0.4
2017-Oct-18 18:31N 68°47' E 016°55'0 0.0
2017-Oct-18 18:00N 68°47' E 016°55'0 0.0
2017-Oct-18 17:30N 68°47' E 016°55'0 0.0
2017-Oct-18 17:01N 68°47' E 016°55'0 0.0
2017-Oct-18 16:30N 68°47' E 016°55'0 0.0
2017-Oct-18 15:59N 68°47' E 016°55'0 0.2
2017-Oct-18 15:31N 68°47' E 016°55'0 0.0
2017-Oct-18 15:00N 68°47' E 016°55'0 0.1
2017-Oct-18 14:00N 68°48' E 016°55'0 0.0
2017-Oct-18 13:30N 68°48' E 016°55'0 0.0
2017-Oct-18 13:00N 68°48' E 016°55'4 7.8
2017-Oct-18 12:31N 68°51' E 016°59'510.5
2017-Oct-18 12:00N 68°48' E 017°11'4 7.5
2017-Oct-18 11:30N 68°49' E 017°21'3 6.7
2017-Oct-18 11:00N 68°48' E 017°13'612.8
2017-Oct-18 10:30N 68°52' E 016°59'5 9.1
2017-Oct-18 09:59N 68°48' E 016°55'2 4.8
2017-Oct-18 09:30N 68°50' E 016°57'713.9
2017-Oct-18 09:00N 68°56' E 017°08'0 0.2
2017-Oct-18 08:30N 68°56' E 017°07'0 0.0
2017-Oct-18 08:01N 68°56' E 017°07'0 0.0
2017-Oct-18 07:30N 68°56' E 017°07'0 0.0
2017-Oct-18 07:00N 68°56' E 017°07'0 0.0
2017-Oct-18 06:30N 68°56' E 017°07'0 0.0
2017-Oct-18 06:00N 68°56' E 017°07'0 0.0
2017-Oct-18 05:30N 68°56' E 017°07'0 0.0
2017-Oct-18 05:00N 68°56' E 017°07'0 0.0
2017-Oct-18 04:30N 68°56' E 017°07'0 0.0
2017-Oct-18 04:00N 68°56' E 017°07'0 0.0
2017-Oct-18 03:30N 68°56' E 017°07'0 0.0
2017-Oct-18 03:00N 68°56' E 017°07'0 0.0
2017-Oct-18 02:30N 68°56' E 017°07'0 0.0
2017-Oct-18 02:00N 68°56' E 017°07'0 0.0
2017-Oct-18 01:30N 68°56' E 017°07'0 0.0
2017-Oct-18 01:00N 68°56' E 017°07'0 0.0
2017-Oct-18 00:30N 68°56' E 017°07'0 0.0
2017-Oct-18 00:00N 68°56' E 017°07'0 0.0
2017-Oct-17 23:30N 68°56' E 017°07'0 0.0
2017-Oct-17 23:00N 68°56' E 017°07'0 0.0
2017-Oct-17 22:30N 68°56' E 017°07'0 0.0
2017-Oct-17 22:00N 68°56' E 017°07'0 0.0
2017-Oct-17 21:31N 68°56' E 017°07'0 0.0
2017-Oct-17 21:00N 68°56' E 017°07'0 0.0
2017-Oct-17 20:30N 68°56' E 017°07'0 0.0
2017-Oct-17 20:01N 68°56' E 017°07'0 0.0
2017-Oct-17 19:30N 68°56' E 017°07'0 0.0
2017-Oct-17 19:01N 68°56' E 017°07'0 0.0
2017-Oct-17 18:30N 68°56' E 017°07'0 0.0
2017-Oct-17 18:01N 68°56' E 017°07'0 0.0
2017-Oct-17 17:30N 68°56' E 017°07'0 0.0
2017-Oct-17 17:01N 68°56' E 017°07'0 0.0
2017-Oct-17 16:30N 68°56' E 017°07'0 0.0
2017-Oct-17 16:00N 68°56' E 017°07'0 0.0
2017-Oct-17 15:30N 68°56' E 017°07'0 0.0
2017-Oct-17 15:00N 68°56' E 017°07'0 0.0
2017-Oct-17 14:30N 68°56' E 017°07'0 0.0
2017-Oct-17 14:00N 68°56' E 017°07'0 0.0
2017-Oct-17 13:31N 68°56' E 017°07'0 0.1
2017-Oct-17 13:00N 68°55' E 017°07'0 0.3
2017-Oct-17 12:30N 68°55' E 017°08'0 0.4
2017-Oct-17 12:00N 68°56' E 017°07'0 0.0
2017-Oct-17 11:30N 68°56' E 017°07'0 1.0
2017-Oct-17 11:00N 68°55' E 017°09'0 1.0
2017-Oct-17 10:29N 68°56' E 017°07'0 0.0
2017-Oct-17 10:00N 68°56' E 017°07'0 0.0
2017-Oct-17 09:30N 68°56' E 017°07'0 0.0
2017-Oct-17 09:00N 68°56' E 017°07'0 0.9
2017-Oct-17 08:30N 68°55' E 017°09'0 0.9
2017-Oct-17 08:00N 68°56' E 017°07'0 0.0
2017-Oct-17 07:30N 68°56' E 017°07'0 0.0
2017-Oct-17 07:00N 68°56' E 017°07'0 0.0
2017-Oct-17 06:30N 68°56' E 017°07'0 0.0
2017-Oct-17 06:00N 68°56' E 017°07'0 0.0
2017-Oct-17 05:30N 68°56' E 017°07'0 0.0
2017-Oct-17 04:59N 68°56' E 017°07'0 0.0
2017-Oct-17 04:31N 68°56' E 017°07'0 0.0
2017-Oct-17 04:00N 68°56' E 017°07'0 0.0
2017-Oct-17 03:30N 68°56' E 017°07'0 0.0
2017-Oct-17 03:00N 68°56' E 017°07'0 0.0
2017-Oct-17 02:31N 68°56' E 017°07'0 0.0
2017-Oct-17 02:00N 68°56' E 017°07'0 0.0
2017-Oct-17 01:30N 68°56' E 017°07'0 0.0
2017-Oct-17 01:01N 68°56' E 017°07'0 0.0
2017-Oct-17 00:30N 68°56' E 017°07'0 0.0
2017-Oct-17 00:00N 68°56' E 017°07'0 0.0
2017-Oct-16 23:30N 68°56' E 017°07'0 0.0
2017-Oct-16 23:00N 68°56' E 017°07'0 0.0
2017-Oct-16 22:30N 68°56' E 017°07'0 0.0
2017-Oct-16 22:00N 68°56' E 017°07'0 0.0
2017-Oct-16 21:30N 68°56' E 017°07'0 0.0
2017-Oct-16 21:00N 68°56' E 017°07'0 0.0
2017-Oct-16 20:30N 68°56' E 017°07'0 0.0
2017-Oct-16 20:00N 68°56' E 017°07'0 0.0
2017-Oct-16 19:30N 68°56' E 017°07'0 0.0
2017-Oct-16 19:00N 68°56' E 017°07'0 0.0
2017-Oct-16 18:30N 68°56' E 017°07'0 0.0
2017-Oct-16 18:00N 68°56' E 017°07'0 0.0
2017-Oct-16 17:30N 68°56' E 017°07'0 0.0
2017-Oct-16 17:00N 68°56' E 017°07'0 0.0
2017-Oct-16 16:30N 68°56' E 017°07'0 0.0
2017-Oct-16 16:00N 68°56' E 017°07'0 0.0
2017-Oct-16 15:30N 68°56' E 017°07'0 0.0
2017-Oct-16 15:00N 68°56' E 017°07'0 0.0
2017-Oct-16 14:00N 68°56' E 017°07'0 0.5
2017-Oct-16 13:30N 68°56' E 017°07'713.9
2017-Oct-16 13:00N 68°49' E 017°10'510.2
2017-Oct-16 12:30N 68°50' E 017°24'0 0.0
2017-Oct-16 12:00N 68°50' E 017°24'2 3.2
2017-Oct-16 11:30N 68°49' E 017°21'0 0.0
2017-Oct-16 11:00N 68°49' E 017°21'0 0.4
2017-Oct-16 10:30N 68°49' E 017°21'0 0.2
2017-Oct-16 10:00N 68°49' E 017°21'0 0.3
2017-Oct-16 09:30N 68°49' E 017°21'0 0.2
2017-Oct-16 09:00N 68°49' E 017°21'0 0.4
2017-Oct-16 08:30N 68°49' E 017°21'0 0.2
2017-Oct-16 08:00N 68°49' E 017°21'0 0.3
2017-Oct-16 07:29N 68°49' E 017°21'0 0.1
2017-Oct-16 07:00N 68°49' E 017°21'2 4.3
2017-Oct-16 06:30N 68°48' E 017°16'714.4
2017-Oct-16 06:00N 68°54' E 017°05'2 3.8
2017-Oct-16 05:30N 68°56' E 017°07'0 0.0
2017-Oct-16 05:00N 68°56' E 017°07'0 0.0
2017-Oct-16 04:30N 68°56' E 017°07'0 0.0
2017-Oct-16 04:00N 68°56' E 017°07'0 0.0
2017-Oct-16 03:30N 68°56' E 017°07'0 0.0
2017-Oct-16 03:00N 68°56' E 017°07'0 0.0
2017-Oct-16 02:30N 68°56' E 017°07'0 0.0
2017-Oct-16 02:01N 68°56' E 017°07'0 0.0
2017-Oct-16 01:31N 68°56' E 017°07'0 0.0
2017-Oct-16 01:00N 68°56' E 017°07'0 0.0
2017-Oct-16 00:31N 68°56' E 017°07'0 0.0
2017-Oct-16 00:00N 68°56' E 017°07'0 0.0
2017-Oct-15 23:30N 68°56' E 017°07'0 0.0
2017-Oct-15 23:00N 68°56' E 017°07'0 0.0
2017-Oct-15 22:30N 68°56' E 017°07'0 0.0
2017-Oct-15 22:00N 68°56' E 017°07'0 0.0
2017-Oct-15 21:31N 68°56' E 017°07'0 0.0
2017-Oct-15 21:00N 68°56' E 017°07'0 0.0
2017-Oct-15 20:30N 68°56' E 017°07'0 0.0
2017-Oct-15 20:00N 68°56' E 017°07'0 0.0
2017-Oct-15 19:30N 68°56' E 017°07'0 0.0
2017-Oct-15 19:00N 68°56' E 017°07'0 0.0
2017-Oct-15 18:29N 68°56' E 017°07'0 0.0
2017-Oct-15 18:00N 68°56' E 017°07'0 0.0
2017-Oct-15 17:30N 68°56' E 017°07'0 0.0
2017-Oct-15 17:00N 68°56' E 017°07'0 0.0
2017-Oct-15 16:30N 68°56' E 017°07'0 0.0
2017-Oct-15 16:00N 68°56' E 017°07'0 0.0
2017-Oct-15 15:30N 68°56' E 017°07'0 0.0
2017-Oct-15 15:00N 68°56' E 017°07'0 0.0
2017-Oct-15 14:00N 68°56' E 017°07'0 0.0
2017-Oct-15 13:30N 68°56' E 017°07'0 0.0
2017-Oct-15 13:00N 68°56' E 017°07'0 0.0
2017-Oct-15 12:30N 68°56' E 017°07'0 0.0
2017-Oct-15 12:00N 68°56' E 017°07'0 0.0
2017-Oct-15 11:30N 68°56' E 017°07'0 0.0
2017-Oct-15 11:00N 68°56' E 017°07'0 0.0
2017-Oct-15 10:30N 68°56' E 017°07'0 0.0
2017-Oct-15 10:00N 68°56' E 017°07'0 0.0
2017-Oct-15 09:30N 68°56' E 017°07'0 0.0
2017-Oct-15 09:00N 68°56' E 017°07'0 0.0
2017-Oct-15 08:30N 68°56' E 017°07'0 0.0
2017-Oct-15 08:01N 68°56' E 017°07'0 0.0
2017-Oct-15 07:30N 68°56' E 017°07'0 0.0
2017-Oct-15 07:00N 68°56' E 017°07'0 0.0
2017-Oct-15 06:31N 68°56' E 017°07'0 0.0
2017-Oct-15 05:59N 68°56' E 017°07'0 0.0
2017-Oct-15 05:30N 68°56' E 017°07'0 0.0
2017-Oct-15 05:00N 68°56' E 017°07'0 0.0
2017-Oct-15 04:30N 68°56' E 017°07'0 0.0
2017-Oct-15 04:00N 68°56' E 017°07'0 0.0
2017-Oct-15 03:30N 68°56' E 017°07'0 0.0
2017-Oct-15 03:00N 68°56' E 017°07'0 0.0
2017-Oct-15 02:30N 68°56' E 017°07'0 0.0
2017-Oct-15 02:00N 68°56' E 017°07'0 0.0
2017-Oct-15 01:31N 68°56' E 017°07'0 0.0
2017-Oct-15 01:00N 68°56' E 017°07'0 0.0
2017-Oct-15 00:29N 68°56' E 017°07'0 0.0
2017-Oct-15 00:00N 68°56' E 017°07'0 0.0
2017-Oct-14 23:30N 68°56' E 017°07'0 0.0
2017-Oct-14 23:00N 68°56' E 017°07'0 0.0
2017-Oct-14 22:31N 68°56' E 017°07'0 0.0
2017-Oct-14 22:00N 68°56' E 017°07'0 0.0
2017-Oct-14 21:30N 68°56' E 017°07'0 0.0
2017-Oct-14 21:00N 68°56' E 017°07'0 0.0
2017-Oct-14 20:30N 68°56' E 017°07'0 0.0
2017-Oct-14 20:00N 68°56' E 017°07'0 0.0
2017-Oct-14 19:30N 68°56' E 017°07'0 0.0
2017-Oct-14 19:00N 68°56' E 017°07'0 0.0
2017-Oct-14 18:30N 68°56' E 017°07'0 0.0
2017-Oct-14 18:00N 68°56' E 017°07'0 0.0
2017-Oct-14 17:30N 68°56' E 017°07'0 0.0
2017-Oct-14 17:00N 68°56' E 017°07'0 0.0
2017-Oct-14 16:30N 68°56' E 017°07'0 0.0
2017-Oct-14 16:00N 68°56' E 017°07'0 0.0
2017-Oct-14 15:29N 68°56' E 017°07'0 0.0
2017-Oct-14 15:00N 68°56' E 017°07'0 0.0
2017-Oct-14 14:30N 68°56' E 017°07'0 0.0
2017-Oct-14 14:01N 68°56' E 017°07'0 0.0
2017-Oct-14 13:30N 68°56' E 017°07'0 0.0
2017-Oct-14 13:00N 68°56' E 017°07'0 0.0
2017-Oct-14 12:31N 68°56' E 017°07'0 0.0
2017-Oct-14 12:00N 68°56' E 017°07'0 0.0
2017-Oct-14 11:30N 68°56' E 017°07'0 0.0
2017-Oct-14 11:00N 68°56' E 017°07'0 0.0
2017-Oct-14 10:30N 68°56' E 017°07'0 0.0
2017-Oct-14 10:00N 68°56' E 017°07'0 0.0
2017-Oct-14 09:30N 68°56' E 017°07'0 0.0
2017-Oct-14 09:00N 68°56' E 017°07'0 0.0
2017-Oct-14 08:30N 68°56' E 017°07'0 0.0
2017-Oct-14 08:00N 68°56' E 017°07'0 0.0
2017-Oct-14 07:30N 68°56' E 017°07'0 0.0
2017-Oct-14 07:00N 68°56' E 017°07'0 0.0
2017-Oct-14 06:31N 68°56' E 017°07'0 0.0
2017-Oct-14 06:00N 68°56' E 017°07'0 0.0
2017-Oct-14 05:30N 68°56' E 017°07'0 0.0
2017-Oct-14 05:00N 68°56' E 017°07'0 0.0
2017-Oct-14 04:30N 68°56' E 017°07'0 0.0
2017-Oct-14 04:00N 68°56' E 017°07'0 0.0
2017-Oct-14 03:30N 68°56' E 017°07'0 0.0
2017-Oct-14 03:00N 68°56' E 017°07'0 0.0
2017-Oct-14 02:30N 68°56' E 017°07'0 0.0
2017-Oct-14 02:01N 68°56' E 017°07'0 0.0
2017-Oct-14 01:30N 68°56' E 017°07'0 0.0
2017-Oct-14 01:00N 68°56' E 017°07'0 0.0
2017-Oct-14 00:30N 68°56' E 017°07'0 0.0
2017-Oct-14 00:00N 68°56' E 017°07'0 0.0
2017-Oct-13 23:30N 68°56' E 017°07'0 0.0
2017-Oct-13 23:01N 68°56' E 017°07'0 0.0
2017-Oct-13 22:30N 68°56' E 017°07'0 0.0
2017-Oct-13 22:00N 68°56' E 017°07'0 0.0
2017-Oct-13 21:30N 68°56' E 017°07'0 0.0
2017-Oct-13 21:01N 68°56' E 017°07'0 0.0
2017-Oct-13 20:30N 68°56' E 017°07'0 0.0
2017-Oct-13 20:01N 68°56' E 017°07'0 0.0
2017-Oct-13 19:30N 68°56' E 017°07'0 0.0
2017-Oct-13 19:00N 68°56' E 017°07'0 0.0
2017-Oct-13 18:30N 68°56' E 017°07'0 0.0
2017-Oct-13 18:00N 68°56' E 017°07'0 0.0
2017-Oct-13 17:30N 68°56' E 017°07'0 0.0
2017-Oct-13 17:01N 68°56' E 017°07'0 0.0
2017-Oct-13 16:30N 68°56' E 017°07'0 0.0
2017-Oct-13 16:00N 68°56' E 017°07'0 0.0
2017-Oct-13 15:29N 68°56' E 017°07'0 0.0
2017-Oct-13 15:00N 68°56' E 017°07'0 0.0
2017-Oct-13 14:30N 68°56' E 017°07'0 0.0
2017-Oct-13 14:00N 68°56' E 017°07'0 0.0
2017-Oct-13 13:30N 68°56' E 017°07'0 0.0
2017-Oct-13 13:00N 68°56' E 017°07'0 0.9
2017-Oct-13 12:29N 68°56' E 017°09'0 0.0
2017-Oct-13 12:00N 68°56' E 017°09'0 0.0
2017-Oct-13 11:29N 68°56' E 017°09'0 0.0
2017-Oct-13 11:00N 68°56' E 017°09'0 0.0
2017-Oct-13 10:30N 68°56' E 017°09'0 0.0
2017-Oct-13 09:59N 68°56' E 017°09'0 0.0
2017-Oct-13 09:30N 68°56' E 017°09'0 0.0
2017-Oct-13 09:00N 68°56' E 017°09'0 0.0
2017-Oct-13 08:30N 68°56' E 017°09'0 0.1
2017-Oct-13 08:00N 68°56' E 017°09'0 0.0
2017-Oct-12 16:24N 68°56' E 017°07'0 0.0
2017-Oct-12 16:00N 68°56' E 017°07'0 0.0
2017-Oct-12 15:30N 68°56' E 017°07'0 0.0
2017-Oct-12 15:00N 68°56' E 017°07'0 0.0
2017-Oct-12 14:30N 68°56' E 017°07'0 0.0
2017-Oct-12 14:00N 68°56' E 017°07'0 0.0
2017-Oct-12 13:30N 68°56' E 017°07'0 0.0
2017-Oct-12 13:00N 68°56' E 017°07'0 0.0
2017-Oct-12 12:30N 68°56' E 017°07'1 1.1
2017-Oct-12 12:00N 68°55' E 017°09'612.5
2017-Oct-12 11:30N 68°54' E 017°26'4 7.6
2017-Oct-12 11:00N 68°50' E 017°24'0 0.0
2017-Oct-12 10:30N 68°50' E 017°24'2 3.3
2017-Oct-12 10:00N 68°49' E 017°21'0 0.0
2017-Oct-12 09:30N 68°49' E 017°21'2 3.3
2017-Oct-12 09:00N 68°50' E 017°24'2 3.3
2017-Oct-12 08:30N 68°49' E 017°21'0 0.1
2017-Oct-12 08:00N 68°49' E 017°21'0 0.2
2017-Oct-12 07:30N 68°49' E 017°21'0 0.3
2017-Oct-12 07:00N 68°49' E 017°21'0 0.2
2017-Oct-12 06:30N 68°49' E 017°21'2 3.9
2017-Oct-12 06:00N 68°48' E 017°17'612.5
2017-Oct-12 05:30N 68°53' E 017°06'3 5.6
2017-Oct-12 05:00N 68°56' E 017°07'0 0.0
2017-Oct-12 04:30N 68°56' E 017°07'0 0.0
2017-Oct-12 04:00N 68°56' E 017°07'0 0.0
2017-Oct-12 03:30N 68°56' E 017°07'0 0.0
2017-Oct-12 03:00N 68°56' E 017°07'0 0.0
2017-Oct-12 02:29N 68°56' E 017°07'0 0.0
2017-Oct-12 01:59N 68°56' E 017°07'0 0.0
2017-Oct-12 01:29N 68°56' E 017°07'0 0.0
2017-Oct-12 00:59N 68°56' E 017°07'0 0.0
2017-Oct-12 00:30N 68°56' E 017°07'0 0.0
2017-Oct-12 00:00N 68°56' E 017°07'0 0.0
2017-Oct-11 23:30N 68°56' E 017°07'0 0.0
2017-Oct-11 23:00N 68°56' E 017°07'0 0.0
2017-Oct-11 22:30N 68°56' E 017°07'0 0.0
2017-Oct-11 22:00N 68°56' E 017°07'0 0.0
2017-Oct-11 21:30N 68°56' E 017°07'0 0.0
2017-Oct-11 21:00N 68°56' E 017°07'0 0.0
2017-Oct-11 20:30N 68°56' E 017°07'0 0.0
2017-Oct-11 19:59N 68°56' E 017°07'0 0.0
2017-Oct-11 19:30N 68°56' E 017°07'0 0.0
2017-Oct-11 19:00N 68°56' E 017°07'0 0.0
2017-Oct-11 18:30N 68°56' E 017°07'0 0.0
2017-Oct-11 18:00N 68°56' E 017°07'0 0.0
2017-Oct-11 17:30N 68°56' E 017°07'0 0.0
2017-Oct-11 17:00N 68°56' E 017°07'3 0.2
2017-Oct-11 00:00N 68°54' E 017°02'713.6
2017-Oct-10 23:30N 68°47' E 016°55'0 0.0
2017-Oct-10 23:00N 68°47' E 016°55'0 0.0
2017-Oct-10 22:30N 68°47' E 016°55'0 0.0
2017-Oct-10 22:00N 68°47' E 016°55'0 0.0
2017-Oct-10 21:31N 68°47' E 016°55'0 0.0
2017-Oct-10 21:00N 68°47' E 016°55'0 0.0
2017-Oct-10 20:30N 68°47' E 016°55'0 0.0
2017-Oct-10 20:00N 68°47' E 016°55'0 0.0
2017-Oct-10 19:30N 68°47' E 016°55'0 0.0
2017-Oct-10 19:01N 68°47' E 016°55'0 0.0
2017-Oct-10 18:30N 68°47' E 016°55'0 0.0
2017-Oct-10 18:00N 68°47' E 016°55'0 0.1
2017-Oct-10 17:30N 68°47' E 016°55'2 3.3
2017-Oct-10 17:00N 68°49' E 016°56'815.1
2017-Oct-10 16:30N 68°56' E 017°07'0 0.6
2017-Oct-10 15:59N 68°56' E 017°07'0 0.0
2017-Oct-10 15:30N 68°56' E 017°07'0 0.0
2017-Oct-10 15:00N 68°56' E 017°07'0 0.0
2017-Oct-10 14:00N 68°56' E 017°07'0 0.0
2017-Oct-10 13:30N 68°56' E 017°07'0 0.0
2017-Oct-10 13:00N 68°56' E 017°07'0 0.0
2017-Oct-10 12:30N 68°56' E 017°07'0 0.0
2017-Oct-10 12:00N 68°56' E 017°07'0 0.0
2017-Oct-10 11:30N 68°56' E 017°07'0 0.0
2017-Oct-10 11:00N 68°56' E 017°07'0 0.0
2017-Oct-10 10:30N 68°56' E 017°07'0 0.0
2017-Oct-10 10:00N 68°56' E 017°07'0 0.0
2017-Oct-10 09:30N 68°56' E 017°07'0 0.0
2017-Oct-10 09:00N 68°56' E 017°07'0 0.0
2017-Oct-10 08:30N 68°56' E 017°07'0 0.0
2017-Oct-10 08:00N 68°56' E 017°07'0 0.0
2017-Oct-10 07:30N 68°56' E 017°07'0 0.0
2017-Oct-10 07:00N 68°56' E 017°07'0 0.0
2017-Oct-10 06:30N 68°56' E 017°07'0 0.0
2017-Oct-10 06:00N 68°56' E 017°07'0 0.0
2017-Oct-10 05:30N 68°56' E 017°07'0 0.0
2017-Oct-10 05:00N 68°56' E 017°07'0 0.0
2017-Oct-10 04:29N 68°56' E 017°07'0 0.0
2017-Oct-10 04:00N 68°56' E 017°07'0 0.0
2017-Oct-10 03:30N 68°56' E 017°07'0 0.0
2017-Oct-10 03:00N 68°56' E 017°07'0 0.0
2017-Oct-10 02:30N 68°56' E 017°07'0 0.0
2017-Oct-10 02:00N 68°56' E 017°07'0 0.0
2017-Oct-10 01:30N 68°56' E 017°07'0 0.0
2017-Oct-10 01:00N 68°56' E 017°07'0 0.0
2017-Oct-10 00:30N 68°56' E 017°07'0 0.0
2017-Oct-10 00:00N 68°56' E 017°07'0 0.0
2017-Oct-09 23:30N 68°56' E 017°07'0 0.0
2017-Oct-09 23:00N 68°56' E 017°07'0 0.0
2017-Oct-09 22:30N 68°56' E 017°07'0 0.0
2017-Oct-09 22:00N 68°56' E 017°07'0 0.0
2017-Oct-09 21:30N 68°56' E 017°07'0 0.0
2017-Oct-09 21:00N 68°56' E 017°07'0 0.0
2017-Oct-09 20:30N 68°56' E 017°07'0 0.0
2017-Oct-09 20:00N 68°56' E 017°07'0 0.0
2017-Oct-09 19:30N 68°56' E 017°07'0 0.0
2017-Oct-09 19:00N 68°56' E 017°07'0 0.0
2017-Oct-09 18:30N 68°56' E 017°07'0 0.0
2017-Oct-09 18:00N 68°56' E 017°07'0 0.0
2017-Oct-09 17:30N 68°56' E 017°07'0 0.0
2017-Oct-09 17:00N 68°56' E 017°07'0 0.0
2017-Oct-09 16:30N 68°56' E 017°07'0 0.0
2017-Oct-09 16:00N 68°56' E 017°07'0 0.0
2017-Oct-09 15:30N 68°56' E 017°07'0 0.0
2017-Oct-09 15:00N 68°56' E 017°07'0 0.0
2017-Oct-09 14:30N 68°56' E 017°07'5 9.0
2017-Oct-09 14:00N 68°52' E 016°60'5 9.5
2017-Oct-09 13:30N 68°48' E 016°55'0 0.0
2017-Oct-09 13:00N 68°48' E 016°55'  

Dump ship's entire track history